Sugar Hill, New Hampshire
Current Conditions -  °F | °C
As of 9:52 PM on Friday 28 Nov 2014 (Local Time) from KHIE Reporting Station
Overcast Overcast  
Wind Chill: 11°   Ceiling: 3100
Heat Index: 18°   Visibility: 10mi
Dew Point: 14°   Wind: 5mph
Humidity: 84%   Direction: 360°N
Pressure: 30.12"   Gusts: NA
Location:  44.22°N, 71.8°W
Report Text: KHIE 290252Z AUTO 36004KT 10SM OVC031 M08/M10 A3012 RMK AO2 SNB09E33 SLP218 P0000 60000 T10781100 51008
Loading
Personal Weather Stations






























Interactive Weather Map New forecast layout! Learn more

10-Day Weather Forecast

Advertisements
Track Severe Weather on mobile